sensor_id;sensor_type;location;lat;lon;timestamp;temperature;humidity
25300;DHT22;13241;51.208;4.432;2023-02-15T00:01:52;6.50;99.90
25300;DHT22;13241;51.208;4.432;2023-02-15T00:04:22;6.40;99.90
25300;DHT22;13241;51.208;4.432;2023-02-15T00:06:49;6.40;99.90
25300;DHT22;13241;51.208;4.432;2023-02-15T00:09:16;6.40;99.90
25300;DHT22;13241;51.208;4.432;2023-02-15T00:11:43;6.40;99.90
25300;DHT22;13241;51.208;4.432;2023-02-15T00:14:21;6.40;99.90
25300;DHT22;13241;51.208;4.432;2023-02-15T00:16:50;6.40;99.90
25300;DHT22;13241;51.208;4.432;2023-02-15T00:19:18;6.40;99.90
25300;DHT22;13241;51.208;4.432;2023-02-15T00:21:46;6.40;99.90
25300;DHT22;13241;51.208;4.432;2023-02-15T00:24:16;6.30;99.90
25300;DHT22;13241;51.208;4.432;2023-02-15T00:26:43;6.20;99.90
25300;DHT22;13241;51.208;4.432;2023-02-15T00:29:11;6.30;99.90
25300;DHT22;13241;51.208;4.432;2023-02-15T00:31:39;6.30;99.90
25300;DHT22;13241;51.208;4.432;2023-02-15T00:34:16;6.20;99.90
25300;DHT22;13241;51.208;4.432;2023-02-15T00:36:44;6.10;99.90
25300;DHT22;13241;51.208;4.432;2023-02-15T00:39:13;6.00;99.90
25300;DHT22;13241;51.208;4.432;2023-02-15T00:41:41;6.00;99.90
25300;DHT22;13241;51.208;4.432;2023-02-15T00:44:08;6.10;99.90
25300;DHT22;13241;51.208;4.432;2023-02-15T00:46:35;6.10;99.90
25300;DHT22;13241;51.208;4.432;2023-02-15T00:49:03;6.10;99.90
25300;DHT22;13241;51.208;4.432;2023-02-15T00:51:31;6.10;99.90
25300;DHT22;13241;51.208;4.432;2023-02-15T00:53:58;6.00;99.90
25300;DHT22;13241;51.208;4.432;2023-02-15T00:56:25;6.00;99.90
25300;DHT22;13241;51.208;4.432;2023-02-15T00:58:51;6.10;99.90
25300;DHT22;13241;51.208;4.432;2023-02-15T01:01:20;6.10;99.90
25300;DHT22;13241;51.208;4.432;2023-02-15T01:03:47;6.10;99.90
25300;DHT22;13241;51.208;4.432;2023-02-15T01:06:15;6.00;99.90
25300;DHT22;13241;51.208;4.432;2023-02-15T01:08:44;6.00;99.90
25300;DHT22;13241;51.208;4.432;2023-02-15T01:11:19;6.00;99.90
25300;DHT22;13241;51.208;4.432;2023-02-15T01:13:51;6.00;99.90
25300;DHT22;13241;51.208;4.432;2023-02-15T01:16:19;5.90;99.90
25300;DHT22;13241;51.208;4.432;2023-02-15T01:18:47;5.80;99.90
25300;DHT22;13241;51.208;4.432;2023-02-15T01:21:20;5.90;99.90
25300;DHT22;13241;51.208;4.432;2023-02-15T01:23:47;5.80;99.90
25300;DHT22;13241;51.208;4.432;2023-02-15T01:26:15;5.80;99.90
25300;DHT22;13241;51.208;4.432;2023-02-15T01:28:43;5.80;99.90
25300;DHT22;13241;51.208;4.432;2023-02-15T01:31:15;5.70;99.90
25300;DHT22;13241;51.208;4.432;2023-02-15T01:33:45;5.70;99.90
25300;DHT22;13241;51.208;4.432;2023-02-15T01:36:12;5.70;99.90
25300;DHT22;13241;51.208;4.432;2023-02-15T01:38:39;5.70;99.90
25300;DHT22;13241;51.208;4.432;2023-02-15T01:41:07;5.60;99.90
25300;DHT22;13241;51.208;4.432;2023-02-15T01:43:58;5.60;99.90
25300;DHT22;13241;51.208;4.432;2023-02-15T01:46:38;5.60;99.90
25300;DHT22;13241;51.208;4.432;2023-02-15T01:49:18;5.60;99.90
25300;DHT22;13241;51.208;4.432;2023-02-15T01:51:48;5.60;99.90
25300;DHT22;13241;51.208;4.432;2023-02-15T01:54:23;5.50;99.90
25300;DHT22;13241;51.208;4.432;2023-02-15T01:56:54;5.50;99.90
25300;DHT22;13241;51.208;4.432;2023-02-15T01:59:23;5.50;99.90
25300;DHT22;13241;51.208;4.432;2023-02-15T02:01:58;5.50;99.90
25300;DHT22;13241;51.208;4.432;2023-02-15T02:04:41;5.50;99.90
25300;DHT22;13241;51.208;4.432;2023-02-15T02:07:18;5.50;99.90
25300;DHT22;13241;51.208;4.432;2023-02-15T02:09:47;5.50;99.90
25300;DHT22;13241;51.208;4.432;2023-02-15T02:12:18;5.40;99.90
25300;DHT22;13241;51.208;4.432;2023-02-15T02:14:47;5.40;99.90
25300;DHT22;13241;51.208;4.432;2023-02-15T02:17:22;5.40;99.90
25300;DHT22;13241;51.208;4.432;2023-02-15T02:24:11;5.30;99.90
25300;DHT22;13241;51.208;4.432;2023-02-15T02:29:26;5.30;99.90
25300;DHT22;13241;51.208;4.432;2023-02-15T02:37:23;5.30;99.90
25300;DHT22;13241;51.208;4.432;2023-02-15T02:40:08;5.20;99.90
25300;DHT22;13241;51.208;4.432;2023-02-15T02:42:41;5.20;99.90
25300;DHT22;13241;51.208;4.432;2023-02-15T02:45:23;5.20;99.90
25300;DHT22;13241;51.208;4.432;2023-02-15T02:48:14;5.20;99.90
25300;DHT22;13241;51.208;4.432;2023-02-15T02:50:41;5.10;99.90
25300;DHT22;13241;51.208;4.432;2023-02-15T02:53:09;5.10;99.90
25300;DHT22;13241;51.208;4.432;2023-02-15T02:55:58;5.00;99.90
25300;DHT22;13241;51.208;4.432;2023-02-15T02:58:39;5.00;99.90
25300;DHT22;13241;51.208;4.432;2023-02-15T03:01:13;4.90;99.90
25300;DHT22;13241;51.208;4.432;2023-02-15T03:03:48;4.90;99.90
25300;DHT22;13241;51.208;4.432;2023-02-15T03:06:26;4.80;99.90
25300;DHT22;13241;51.208;4.432;2023-02-15T03:09:06;4.80;99.90
25300;DHT22;13241;51.208;4.432;2023-02-15T03:11:44;4.80;99.90
25300;DHT22;13241;51.208;4.432;2023-02-15T03:14:14;4.80;99.90
25300;DHT22;13241;51.208;4.432;2023-02-15T03:16:45;4.80;99.90
25300;DHT22;13241;51.208;4.432;2023-02-15T03:19:20;4.80;99.90
25300;DHT22;13241;51.208;4.432;2023-02-15T03:21:50;4.80;99.90
25300;DHT22;13241;51.208;4.432;2023-02-15T03:24:28;4.80;99.90
25300;DHT22;13241;51.208;4.432;2023-02-15T03:26:59;4.80;99.90
25300;DHT22;13241;51.208;4.432;2023-02-15T03:29:29;4.80;99.90
25300;DHT22;13241;51.208;4.432;2023-02-15T03:32:00;4.80;99.90
25300;DHT22;13241;51.208;4.432;2023-02-15T03:34:27;4.80;99.90
25300;DHT22;13241;51.208;4.432;2023-02-15T03:37:11;4.70;99.90
25300;DHT22;13241;51.208;4.432;2023-02-15T03:42:28;4.70;99.90
25300;DHT22;13241;51.208;4.432;2023-02-15T03:45:14;4.70;99.90
25300;DHT22;13241;51.208;4.432;2023-02-15T03:47:47;4.60;99.90
25300;DHT22;13241;51.208;4.432;2023-02-15T03:50:21;4.60;99.90
25300;DHT22;13241;51.208;4.432;2023-02-15T03:53:11;4.60;99.90
25300;DHT22;13241;51.208;4.432;2023-02-15T03:55:40;4.60;99.90
25300;DHT22;13241;51.208;4.432;2023-02-15T03:58:07;4.60;99.90
25300;DHT22;13241;51.208;4.432;2023-02-15T04:00:58;4.60;99.90
25300;DHT22;13241;51.208;4.432;2023-02-15T04:03:51;4.50;99.90
25300;DHT22;13241;51.208;4.432;2023-02-15T04:06:20;4.50;99.90
25300;DHT22;13241;51.208;4.432;2023-02-15T04:08:47;4.50;99.90
25300;DHT22;13241;51.208;4.432;2023-02-15T04:11:32;4.50;99.90
25300;DHT22;13241;51.208;4.432;2023-02-15T04:13:59;4.60;99.90
25300;DHT22;13241;51.208;4.432;2023-02-15T04:16:45;4.60;99.90
25300;DHT22;13241;51.208;4.432;2023-02-15T04:19:12;4.60;99.90
25300;DHT22;13241;51.208;4.432;2023-02-15T04:21:58;4.60;99.90
25300;DHT22;13241;51.208;4.432;2023-02-15T04:24:43;4.50;99.90
25300;DHT22;13241;51.208;4.432;2023-02-15T04:27:29;4.50;99.90
25300;DHT22;13241;51.208;4.432;2023-02-15T04:29:56;4.40;99.90
25300;DHT22;13241;51.208;4.432;2023-02-15T04:32:23;4.30;99.90
25300;DHT22;13241;51.208;4.432;2023-02-15T04:34:49;4.30;99.90
25300;DHT22;13241;51.208;4.432;2023-02-15T04:37:16;4.30;99.90
25300;DHT22;13241;51.208;4.432;2023-02-15T04:39:43;4.30;99.90
25300;DHT22;13241;51.208;4.432;2023-02-15T04:42:10;4.30;99.90
25300;DHT22;13241;51.208;4.432;2023-02-15T04:44:37;4.30;99.90
25300;DHT22;13241;51.208;4.432;2023-02-15T04:47:04;4.40;99.90
25300;DHT22;13241;51.208;4.432;2023-02-15T04:49:30;4.30;99.90
25300;DHT22;13241;51.208;4.432;2023-02-15T04:51:57;4.30;99.90
25300;DHT22;13241;51.208;4.432;2023-02-15T04:54:24;4.30;99.90
25300;DHT22;13241;51.208;4.432;2023-02-15T04:56:51;4.20;99.90
25300;DHT22;13241;51.208;4.432;2023-02-15T04:59:18;4.30;99.90
25300;DHT22;13241;51.208;4.432;2023-02-15T05:01:44;4.30;99.90
25300;DHT22;13241;51.208;4.432;2023-02-15T05:04:11;4.20;99.90
25300;DHT22;13241;51.208;4.432;2023-02-15T05:06:38;4.20;99.90
25300;DHT22;13241;51.208;4.432;2023-02-15T05:09:05;4.20;99.90
25300;DHT22;13241;51.208;4.432;2023-02-15T05:11:31;4.30;99.90
25300;DHT22;13241;51.208;4.432;2023-02-15T05:13:58;4.30;99.90
25300;DHT22;13241;51.208;4.432;2023-02-15T05:16:25;4.30;99.90
25300;DHT22;13241;51.208;4.432;2023-02-15T05:18:54;4.20;99.90
25300;DHT22;13241;51.208;4.432;2023-02-15T05:21:21;4.20;99.90
25300;DHT22;13241;51.208;4.432;2023-02-15T05:23:47;4.10;99.90
25300;DHT22;13241;51.208;4.432;2023-02-15T05:26:19;4.20;99.90
25300;DHT22;13241;51.208;4.432;2023-02-15T05:29:05;4.10;99.90
25300;DHT22;13241;51.208;4.432;2023-02-15T05:31:33;4.20;99.90
25300;DHT22;13241;51.208;4.432;2023-02-15T05:34:00;4.10;99.90
25300;DHT22;13241;51.208;4.432;2023-02-15T05:36:27;4.20;99.90
25300;DHT22;13241;51.208;4.432;2023-02-15T05:38:55;4.20;99.90
25300;DHT22;13241;51.208;4.432;2023-02-15T05:41:22;4.20;99.90
25300;DHT22;13241;51.208;4.432;2023-02-15T05:43:49;4.20;99.90
25300;DHT22;13241;51.208;4.432;2023-02-15T05:46:15;4.20;99.90
25300;DHT22;13241;51.208;4.432;2023-02-15T05:48:42;4.10;99.90
25300;DHT22;13241;51.208;4.432;2023-02-15T05:51:11;4.00;99.90
25300;DHT22;13241;51.208;4.432;2023-02-15T05:53:42;4.00;99.90
25300;DHT22;13241;51.208;4.432;2023-02-15T05:56:10;3.90;99.90
25300;DHT22;13241;51.208;4.432;2023-02-15T05:58:39;3.90;99.90
25300;DHT22;13241;51.208;4.432;2023-02-15T06:01:17;3.90;99.90
25300;DHT22;13241;51.208;4.432;2023-02-15T06:03:45;3.90;99.90
25300;DHT22;13241;51.208;4.432;2023-02-15T06:06:12;3.90;99.90
25300;DHT22;13241;51.208;4.432;2023-02-15T06:08:40;3.90;99.90
25300;DHT22;13241;51.208;4.432;2023-02-15T06:11:07;3.90;99.90
25300;DHT22;13241;51.208;4.432;2023-02-15T06:13:34;3.90;99.90
25300;DHT22;13241;51.208;4.432;2023-02-15T06:16:05;3.80;99.90
25300;DHT22;13241;51.208;4.432;2023-02-15T06:18:32;3.80;99.90
25300;DHT22;13241;51.208;4.432;2023-02-15T06:20:59;3.80;99.90
25300;DHT22;13241;51.208;4.432;2023-02-15T06:23:26;3.80;99.90
25300;DHT22;13241;51.208;4.432;2023-02-15T06:25:52;3.80;99.90
25300;DHT22;13241;51.208;4.432;2023-02-15T06:28:19;3.80;99.90
25300;DHT22;13241;51.208;4.432;2023-02-15T06:30:46;3.80;99.90
25300;DHT22;13241;51.208;4.432;2023-02-15T06:33:13;3.80;99.90
25300;DHT22;13241;51.208;4.432;2023-02-15T06:35:40;3.70;99.90
25300;DHT22;13241;51.208;4.432;2023-02-15T06:38:07;3.90;99.90
25300;DHT22;13241;51.208;4.432;2023-02-15T06:40:34;3.70;99.90
25300;DHT22;13241;51.208;4.432;2023-02-15T06:43:01;3.70;99.90
25300;DHT22;13241;51.208;4.432;2023-02-15T06:45:27;3.70;99.90
25300;DHT22;13241;51.208;4.432;2023-02-15T06:47:54;3.70;99.90
25300;DHT22;13241;51.208;4.432;2023-02-15T06:50:21;3.70;99.90
25300;DHT22;13241;51.208;4.432;2023-02-15T06:52:48;3.80;99.90
25300;DHT22;13241;51.208;4.432;2023-02-15T06:55:15;3.70;99.90
25300;DHT22;13241;51.208;4.432;2023-02-15T06:57:42;3.70;99.90
25300;DHT22;13241;51.208;4.432;2023-02-15T07:00:09;3.70;99.90
25300;DHT22;13241;51.208;4.432;2023-02-15T07:02:36;3.60;99.90
25300;DHT22;13241;51.208;4.432;2023-02-15T07:05:03;3.70;99.90
25300;DHT22;13241;51.208;4.432;2023-02-15T07:07:32;3.70;99.90
25300;DHT22;13241;51.208;4.432;2023-02-15T07:09:58;3.70;99.90
25300;DHT22;13241;51.208;4.432;2023-02-15T07:12:25;3.70;99.90
25300;DHT22;13241;51.208;4.432;2023-02-15T07:15:14;3.80;99.90
25300;DHT22;13241;51.208;4.432;2023-02-15T07:17:42;3.80;99.90
25300;DHT22;13241;51.208;4.432;2023-02-15T07:20:23;3.80;99.90
25300;DHT22;13241;51.208;4.432;2023-02-15T07:22:50;3.90;99.90
25300;DHT22;13241;51.208;4.432;2023-02-15T07:25:17;4.00;99.90
25300;DHT22;13241;51.208;4.432;2023-02-15T07:27:44;4.20;99.90
25300;DHT22;13241;51.208;4.432;2023-02-15T07:30:14;4.30;99.90
25300;DHT22;13241;51.208;4.432;2023-02-15T07:32:41;4.40;99.90
25300;DHT22;13241;51.208;4.432;2023-02-15T07:35:30;4.50;99.90
25300;DHT22;13241;51.208;4.432;2023-02-15T07:37:57;4.60;99.90
25300;DHT22;13241;51.208;4.432;2023-02-15T07:40:24;4.70;99.90
25300;DHT22;13241;51.208;4.432;2023-02-15T07:42:51;4.70;99.90
25300;DHT22;13241;51.208;4.432;2023-02-15T07:45:22;4.80;99.90
25300;DHT22;13241;51.208;4.432;2023-02-15T07:47:49;4.90;99.90
25300;DHT22;13241;51.208;4.432;2023-02-15T07:50:16;5.00;99.90
25300;DHT22;13241;51.208;4.432;2023-02-15T07:52:43;5.00;99.90
25300;DHT22;13241;51.208;4.432;2023-02-15T07:55:10;5.00;99.90
25300;DHT22;13241;51.208;4.432;2023-02-15T07:57:43;5.10;99.90
25300;DHT22;13241;51.208;4.432;2023-02-15T08:00:12;5.10;99.90
25300;DHT22;13241;51.208;4.432;2023-02-15T08:02:39;5.20;99.90
25300;DHT22;13241;51.208;4.432;2023-02-15T08:05:07;5.20;99.90
25300;DHT22;13241;51.208;4.432;2023-02-15T08:07:34;5.20;99.90
25300;DHT22;13241;51.208;4.432;2023-02-15T08:10:00;5.30;99.90
25300;DHT22;13241;51.208;4.432;2023-02-15T08:12:27;5.30;99.90
25300;DHT22;13241;51.208;4.432;2023-02-15T08:14:54;5.40;99.90
25300;DHT22;13241;51.208;4.432;2023-02-15T08:17:21;5.40;99.90
25300;DHT22;13241;51.208;4.432;2023-02-15T08:19:47;5.50;99.90
25300;DHT22;13241;51.208;4.432;2023-02-15T08:22:14;5.50;99.90
25300;DHT22;13241;51.208;4.432;2023-02-15T08:24:41;5.60;99.90
25300;DHT22;13241;51.208;4.432;2023-02-15T08:27:09;5.70;99.90
25300;DHT22;13241;51.208;4.432;2023-02-15T08:29:38;5.70;99.90
25300;DHT22;13241;51.208;4.432;2023-02-15T08:32:08;5.80;99.90
25300;DHT22;13241;51.208;4.432;2023-02-15T08:34:39;5.80;99.90
25300;DHT22;13241;51.208;4.432;2023-02-15T08:37:06;5.80;99.90
25300;DHT22;13241;51.208;4.432;2023-02-15T08:39:33;5.90;99.90
25300;DHT22;13241;51.208;4.432;2023-02-15T08:42:00;6.00;99.90
25300;DHT22;13241;51.208;4.432;2023-02-15T08:44:27;6.10;99.90
25300;DHT22;13241;51.208;4.432;2023-02-15T08:46:54;6.20;99.90
25300;DHT22;13241;51.208;4.432;2023-02-15T08:49:21;6.30;99.90
25300;DHT22;13241;51.208;4.432;2023-02-15T08:51:49;6.40;99.90
25300;DHT22;13241;51.208;4.432;2023-02-15T08:54:19;6.50;99.90
25300;DHT22;13241;51.208;4.432;2023-02-15T08:56:47;6.60;99.90
25300;DHT22;13241;51.208;4.432;2023-02-15T08:59:16;6.80;99.90
25300;DHT22;13241;51.208;4.432;2023-02-15T09:01:43;6.90;99.90
25300;DHT22;13241;51.208;4.432;2023-02-15T09:04:10;7.10;99.90
25300;DHT22;13241;51.208;4.432;2023-02-15T09:06:38;7.20;99.90
25300;DHT22;13241;51.208;4.432;2023-02-15T09:09:06;7.30;99.90
25300;DHT22;13241;51.208;4.432;2023-02-15T09:11:36;7.30;99.90
25300;DHT22;13241;51.208;4.432;2023-02-15T09:14:12;7.40;99.90
25300;DHT22;13241;51.208;4.432;2023-02-15T09:16:42;7.40;99.90
25300;DHT22;13241;51.208;4.432;2023-02-15T09:19:11;7.50;99.90
25300;DHT22;13241;51.208;4.432;2023-02-15T09:21:38;7.60;99.90
25300;DHT22;13241;51.208;4.432;2023-02-15T09:24:10;7.70;99.90
25300;DHT22;13241;51.208;4.432;2023-02-15T09:26:39;7.80;99.90
25300;DHT22;13241;51.208;4.432;2023-02-15T09:29:11;8.00;99.90
25300;DHT22;13241;51.208;4.432;2023-02-15T09:31:43;8.10;99.90
25300;DHT22;13241;51.208;4.432;2023-02-15T09:34:12;8.40;99.90
25300;DHT22;13241;51.208;4.432;2023-02-15T09:36:40;8.60;99.90
25300;DHT22;13241;51.208;4.432;2023-02-15T09:39:10;8.80;99.90
25300;DHT22;13241;51.208;4.432;2023-02-15T09:41:50;9.00;99.90
25300;DHT22;13241;51.208;4.432;2023-02-15T10:06:35;11.00;99.90
25300;DHT22;13241;51.208;4.432;2023-02-15T10:09:10;10.80;99.90
25300;DHT22;13241;51.208;4.432;2023-02-15T10:11:49;10.60;99.90
25300;DHT22;13241;51.208;4.432;2023-02-15T10:17:40;10.40;99.90
25300;DHT22;13241;51.208;4.432;2023-02-15T10:20:22;11.10;99.90
25300;DHT22;13241;51.208;4.432;2023-02-15T10:28:22;12.40;99.90
25300;DHT22;13241;51.208;4.432;2023-02-15T10:30:51;12.10;99.90
25300;DHT22;13241;51.208;4.432;2023-02-15T11:15:11;12.20;99.90
25300;DHT22;13241;51.208;4.432;2023-02-15T11:27:47;12.60;99.90
25300;DHT22;13241;51.208;4.432;2023-02-15T13:08:27;12.40;99.90
25300;DHT22;13241;51.208;4.432;2023-02-15T13:10:56;13.90;99.90
25300;DHT22;13241;51.208;4.432;2023-02-15T13:13:29;13.90;99.90
25300;DHT22;13241;51.208;4.432;2023-02-15T13:16:02;14.10;99.90
25300;DHT22;13241;51.208;4.432;2023-02-15T13:18:36;14.20;99.90
25300;DHT22;13241;51.208;4.432;2023-02-15T13:21:25;14.30;99.90
25300;DHT22;13241;51.208;4.432;2023-02-15T13:24:04;14.30;99.90
25300;DHT22;13241;51.208;4.432;2023-02-15T13:26:32;14.40;99.90
25300;DHT22;13241;51.208;4.432;2023-02-15T13:29:08;14.20;99.90
25300;DHT22;13241;51.208;4.432;2023-02-15T13:31:39;14.10;99.90
25300;DHT22;13241;51.208;4.432;2023-02-15T13:34:14;14.00;99.90
25300;DHT22;13241;51.208;4.432;2023-02-15T13:37:05;14.20;99.90
25300;DHT22;13241;51.208;4.432;2023-02-15T13:39:40;14.10;99.90
25300;DHT22;13241;51.208;4.432;2023-02-15T13:42:24;14.10;99.90
25300;DHT22;13241;51.208;4.432;2023-02-15T13:53:46;14.20;99.90
25300;DHT22;13241;51.208;4.432;2023-02-15T14:01:56;14.30;99.90
25300;DHT22;13241;51.208;4.432;2023-02-15T14:04:39;14.30;99.90
25300;DHT22;13241;51.208;4.432;2023-02-15T14:24:58;15.40;99.90
25300;DHT22;13241;51.208;4.432;2023-02-15T14:27:48;15.50;99.90
25300;DHT22;13241;51.208;4.432;2023-02-15T14:30:23;15.60;99.90
25300;DHT22;13241;51.208;4.432;2023-02-15T14:33:19;15.80;99.90
25300;DHT22;13241;51.208;4.432;2023-02-15T14:35:52;15.80;99.90
25300;DHT22;13241;51.208;4.432;2023-02-15T14:38:44;15.80;99.90
25300;DHT22;13241;51.208;4.432;2023-02-15T14:44:13;15.70;99.90
25300;DHT22;13241;51.208;4.432;2023-02-15T14:46:54;15.80;99.90
25300;DHT22;13241;51.208;4.432;2023-02-15T14:49:26;15.70;99.90
25300;DHT22;13241;51.208;4.432;2023-02-15T14:51:58;15.60;99.90
25300;DHT22;13241;51.208;4.432;2023-02-15T15:07:24;15.30;99.90
25300;DHT22;13241;51.208;4.432;2023-02-15T15:12:51;15.00;99.90
25300;DHT22;13241;51.208;4.432;2023-02-15T15:18:05;14.70;99.90
25300;DHT22;13241;51.208;4.432;2023-02-15T15:20:40;14.40;99.90
25300;DHT22;13241;51.208;4.432;2023-02-15T15:25:56;13.90;99.90
25300;DHT22;13241;51.208;4.432;2023-02-15T15:33:59;13.50;99.90
25300;DHT22;13241;51.208;4.432;2023-02-15T15:42:51;13.20;99.90
25300;DHT22;13241;51.208;4.432;2023-02-15T15:50:39;12.90;99.90
25300;DHT22;13241;51.208;4.432;2023-02-15T15:53:20;12.80;99.90
25300;DHT22;13241;51.208;4.432;2023-02-15T15:55:49;12.70;99.90
25300;DHT22;13241;51.208;4.432;2023-02-15T15:58:17;12.60;99.90
25300;DHT22;13241;51.208;4.432;2023-02-15T16:00:56;12.50;99.90
25300;DHT22;13241;51.208;4.432;2023-02-15T16:03:27;12.40;99.90
25300;DHT22;13241;51.208;4.432;2023-02-15T16:05:54;12.30;99.90
25300;DHT22;13241;51.208;4.432;2023-02-15T16:08:27;12.20;99.90
25300;DHT22;13241;51.208;4.432;2023-02-15T16:10:54;12.10;99.90
25300;DHT22;13241;51.208;4.432;2023-02-15T16:13:21;12.00;99.90
25300;DHT22;13241;51.208;4.432;2023-02-15T16:15:53;11.90;99.90
25300;DHT22;13241;51.208;4.432;2023-02-15T16:18:24;11.80;99.90
25300;DHT22;13241;51.208;4.432;2023-02-15T16:20:57;11.70;99.90
25300;DHT22;13241;51.208;4.432;2023-02-15T16:23:54;11.60;99.90
25300;DHT22;13241;51.208;4.432;2023-02-15T16:29:30;11.50;99.90
25300;DHT22;13241;51.208;4.432;2023-02-15T16:32:20;11.40;99.90
25300;DHT22;13241;51.208;4.432;2023-02-15T16:34:58;11.30;99.90
25300;DHT22;13241;51.208;4.432;2023-02-15T16:37:32;11.30;99.90
25300;DHT22;13241;51.208;4.432;2023-02-15T16:39:59;11.30;99.90
25300;DHT22;13241;51.208;4.432;2023-02-15T16:42:27;11.20;99.90
25300;DHT22;13241;51.208;4.432;2023-02-15T16:45:06;11.10;99.90
25300;DHT22;13241;51.208;4.432;2023-02-15T16:47:40;11.10;99.90
25300;DHT22;13241;51.208;4.432;2023-02-15T16:50:20;11.00;99.90
25300;DHT22;13241;51.208;4.432;2023-02-15T16:52:48;10.90;99.90
25300;DHT22;13241;51.208;4.432;2023-02-15T16:55:30;10.90;99.90
25300;DHT22;13241;51.208;4.432;2023-02-15T16:58:01;10.70;99.90
25300;DHT22;13241;51.208;4.432;2023-02-15T17:00:34;10.70;99.90
25300;DHT22;13241;51.208;4.432;2023-02-15T17:03:21;10.60;99.90
25300;DHT22;13241;51.208;4.432;2023-02-15T17:06:00;10.50;99.90
25300;DHT22;13241;51.208;4.432;2023-02-15T17:08:44;10.50;99.90
25300;DHT22;13241;51.208;4.432;2023-02-15T17:11:17;10.40;99.90
25300;DHT22;13241;51.208;4.432;2023-02-15T17:19:29;10.30;99.90
25300;DHT22;13241;51.208;4.432;2023-02-15T17:22:04;10.20;99.90
25300;DHT22;13241;51.208;4.432;2023-02-15T17:24:43;10.20;99.90
25300;DHT22;13241;51.208;4.432;2023-02-15T17:27:26;10.20;99.90
25300;DHT22;13241;51.208;4.432;2023-02-15T17:30:00;10.20;99.90
25300;DHT22;13241;51.208;4.432;2023-02-15T17:32:30;10.20;99.90
25300;DHT22;13241;51.208;4.432;2023-02-15T17:40:26;10.20;99.90
25300;DHT22;13241;51.208;4.432;2023-02-15T17:42:53;10.20;99.90
25300;DHT22;13241;51.208;4.432;2023-02-15T17:45:22;10.20;99.90
25300;DHT22;13241;51.208;4.432;2023-02-15T17:47:51;10.20;99.90
25300;DHT22;13241;51.208;4.432;2023-02-15T17:50:24;10.20;99.90
25300;DHT22;13241;51.208;4.432;2023-02-15T17:52:53;10.20;99.90
25300;DHT22;13241;51.208;4.432;2023-02-15T17:55:22;10.20;99.90
25300;DHT22;13241;51.208;4.432;2023-02-15T17:58:11;10.20;99.90
25300;DHT22;13241;51.208;4.432;2023-02-15T18:00:44;10.20;99.90
25300;DHT22;13241;51.208;4.432;2023-02-15T18:03:51;10.20;99.90
25300;DHT22;13241;51.208;4.432;2023-02-15T18:06:40;10.10;99.90
25300;DHT22;13241;51.208;4.432;2023-02-15T18:09:26;10.10;99.90
25300;DHT22;13241;51.208;4.432;2023-02-15T18:14:41;10.00;99.90
25300;DHT22;13241;51.208;4.432;2023-02-15T18:17:11;10.00;99.90
25300;DHT22;13241;51.208;4.432;2023-02-15T18:19:40;10.00;99.90
25300;DHT22;13241;51.208;4.432;2023-02-15T18:22:13;10.00;99.90
25300;DHT22;13241;51.208;4.432;2023-02-15T18:24:41;10.00;99.90
25300;DHT22;13241;51.208;4.432;2023-02-15T18:27:10;10.00;99.90
25300;DHT22;13241;51.208;4.432;2023-02-15T18:29:38;9.90;99.90
25300;DHT22;13241;51.208;4.432;2023-02-15T18:32:14;10.00;99.90
25300;DHT22;13241;51.208;4.432;2023-02-15T18:34:42;10.10;99.90
25300;DHT22;13241;51.208;4.432;2023-02-15T18:37:15;9.90;99.90
25300;DHT22;13241;51.208;4.432;2023-02-15T18:39:45;9.90;99.90
25300;DHT22;13241;51.208;4.432;2023-02-15T18:42:21;10.00;99.90
25300;DHT22;13241;51.208;4.432;2023-02-15T18:44:49;9.90;99.90
25300;DHT22;13241;51.208;4.432;2023-02-15T18:47:19;9.90;99.90
25300;DHT22;13241;51.208;4.432;2023-02-15T18:49:46;9.90;99.90
25300;DHT22;13241;51.208;4.432;2023-02-15T18:52:18;9.80;99.90
25300;DHT22;13241;51.208;4.432;2023-02-15T18:54:46;9.80;99.90
25300;DHT22;13241;51.208;4.432;2023-02-15T18:57:14;9.80;99.90
25300;DHT22;13241;51.208;4.432;2023-02-15T18:59:42;9.80;99.90
25300;DHT22;13241;51.208;4.432;2023-02-15T19:02:13;9.70;99.90
25300;DHT22;13241;51.208;4.432;2023-02-15T19:04:41;9.80;99.90
25300;DHT22;13241;51.208;4.432;2023-02-15T19:07:27;9.70;99.90
25300;DHT22;13241;51.208;4.432;2023-02-15T19:09:57;9.60;99.90
25300;DHT22;13241;51.208;4.432;2023-02-15T19:12:27;9.60;99.90
25300;DHT22;13241;51.208;4.432;2023-02-15T19:14:54;9.50;99.90
25300;DHT22;13241;51.208;4.432;2023-02-15T19:17:23;9.40;99.90
25300;DHT22;13241;51.208;4.432;2023-02-15T19:19:51;9.40;99.90
25300;DHT22;13241;51.208;4.432;2023-02-15T19:22:28;9.40;99.90
25300;DHT22;13241;51.208;4.432;2023-02-15T19:25:00;9.30;99.90
25300;DHT22;13241;51.208;4.432;2023-02-15T19:27:30;9.40;99.90
25300;DHT22;13241;51.208;4.432;2023-02-15T19:30:00;9.20;99.90
25300;DHT22;13241;51.208;4.432;2023-02-15T19:32:27;9.20;99.90
25300;DHT22;13241;51.208;4.432;2023-02-15T19:34:56;9.10;99.90
25300;DHT22;13241;51.208;4.432;2023-02-15T19:37:33;9.10;99.90
25300;DHT22;13241;51.208;4.432;2023-02-15T19:40:02;9.00;99.90
25300;DHT22;13241;51.208;4.432;2023-02-15T19:42:30;9.00;99.90
25300;DHT22;13241;51.208;4.432;2023-02-15T19:44:58;9.00;99.90
25300;DHT22;13241;51.208;4.432;2023-02-15T19:47:26;9.00;99.90
25300;DHT22;13241;51.208;4.432;2023-02-15T19:49:53;9.00;99.90
25300;DHT22;13241;51.208;4.432;2023-02-15T19:52:25;9.20;99.90
25300;DHT22;13241;51.208;4.432;2023-02-15T19:54:54;9.00;99.90
25300;DHT22;13241;51.208;4.432;2023-02-15T19:57:26;9.00;99.90
25300;DHT22;13241;51.208;4.432;2023-02-15T19:59:56;9.00;99.90
25300;DHT22;13241;51.208;4.432;2023-02-15T20:02:23;9.00;99.90
25300;DHT22;13241;51.208;4.432;2023-02-15T20:04:50;8.90;99.90
25300;DHT22;13241;51.208;4.432;2023-02-15T20:07:25;8.90;99.90
25300;DHT22;13241;51.208;4.432;2023-02-15T20:09:53;8.80;99.90
25300;DHT22;13241;51.208;4.432;2023-02-15T20:12:22;8.80;99.90
25300;DHT22;13241;51.208;4.432;2023-02-15T20:14:51;8.80;99.90
25300;DHT22;13241;51.208;4.432;2023-02-15T20:17:18;8.80;99.90
25300;DHT22;13241;51.208;4.432;2023-02-15T20:19:45;8.70;99.90
25300;DHT22;13241;51.208;4.432;2023-02-15T20:22:23;8.60;99.90
25300;DHT22;13241;51.208;4.432;2023-02-15T20:24:51;8.60;99.90
25300;DHT22;13241;51.208;4.432;2023-02-15T20:27:21;8.60;99.90
25300;DHT22;13241;51.208;4.432;2023-02-15T20:29:48;8.60;99.90
25300;DHT22;13241;51.208;4.432;2023-02-15T20:32:16;8.60;99.90
25300;DHT22;13241;51.208;4.432;2023-02-15T20:34:43;8.60;99.90
25300;DHT22;13241;51.208;4.432;2023-02-15T20:37:21;8.50;99.90
25300;DHT22;13241;51.208;4.432;2023-02-15T20:39:49;8.50;99.90
25300;DHT22;13241;51.208;4.432;2023-02-15T20:42:18;8.50;99.90
25300;DHT22;13241;51.208;4.432;2023-02-15T20:44:48;8.50;99.90
25300;DHT22;13241;51.208;4.432;2023-02-15T20:47:14;8.50;99.90
25300;DHT22;13241;51.208;4.432;2023-02-15T20:49:44;8.50;99.90
25300;DHT22;13241;51.208;4.432;2023-02-15T20:52:19;8.40;99.90
25300;DHT22;13241;51.208;4.432;2023-02-15T20:54:46;8.40;99.90
25300;DHT22;13241;51.208;4.432;2023-02-15T20:57:13;8.40;99.90